createdAt,value
2018-09-11T00:00:42.669Z,93.50
2018-09-11T00:03:10.475Z,90.10
2018-09-11T00:05:38.347Z,87.80
2018-09-11T00:08:06.244Z,92.70
2018-09-11T00:10:34.045Z,96.20
2018-09-11T00:13:01.920Z,97.20
2018-09-11T00:15:29.752Z,98.90
2018-09-11T00:17:57.631Z,99.60
2018-09-11T00:20:25.590Z,99.40
2018-09-11T00:22:53.463Z,99.90
2018-09-11T00:25:21.325Z,99.90
2018-09-11T00:27:49.235Z,98.90
2018-09-11T00:30:17.059Z,99.90
2018-09-11T00:32:44.915Z,99.90
2018-09-11T00:35:12.747Z,94.80
2018-09-11T00:37:40.591Z,93.80
2018-09-11T00:40:08.559Z,99.90
2018-09-11T00:42:36.392Z,99.90
2018-09-11T00:45:04.747Z,98.20
2018-09-11T00:47:32.618Z,99.90
2018-09-11T00:50:00.409Z,99.90
2018-09-11T00:52:28.355Z,97.60
2018-09-11T00:54:56.254Z,99.90
2018-09-11T00:57:24.096Z,99.90
2018-09-11T00:59:51.995Z,99.90
2018-09-11T01:02:19.801Z,99.90
2018-09-11T01:04:47.687Z,99.90
2018-09-11T01:07:15.534Z,99.90
2018-09-11T01:09:43.373Z,99.90
2018-09-11T01:12:11.201Z,99.90
2018-09-11T01:14:39.210Z,99.90
2018-09-11T01:17:07.039Z,99.20
2018-09-11T01:19:34.944Z,95.20
2018-09-11T01:22:02.800Z,94.60
2018-09-11T01:24:30.634Z,94.20
2018-09-11T01:26:58.541Z,93.40
2018-09-11T01:29:26.379Z,96.00
2018-09-11T01:31:54.139Z,94.20
2018-09-11T01:34:21.971Z,96.80
2018-09-11T01:36:49.839Z,94.00
2018-09-11T01:39:17.731Z,93.70
2018-09-11T01:41:45.661Z,93.50
2018-09-11T01:44:13.532Z,93.50
2018-09-11T01:46:41.393Z,93.60
2018-09-11T01:49:09.240Z,95.30
2018-09-11T01:51:37.011Z,94.00
2018-09-11T01:54:05.120Z,96.40
2018-09-11T01:56:32.915Z,99.20
2018-09-11T01:59:00.721Z,99.90
2018-09-11T02:01:28.551Z,99.90
2018-09-11T02:03:56.427Z,99.90
2018-09-11T02:06:24.239Z,99.90
2018-09-11T02:08:52.199Z,99.90
2018-09-11T02:11:20.008Z,99.90
2018-09-11T02:13:47.828Z,99.90
2018-09-11T02:16:15.688Z,99.90
2018-09-11T02:18:43.540Z,99.90
2018-09-11T02:21:11.335Z,99.90
2018-09-11T02:23:39.208Z,99.90
2018-09-11T02:26:07.067Z,99.90
2018-09-11T02:28:34.922Z,99.90
2018-09-11T02:31:02.752Z,99.90
2018-09-11T02:33:30.602Z,99.90
2018-09-11T02:35:58.415Z,99.90
2018-09-11T02:38:26.253Z,99.90
2018-09-11T02:40:54.086Z,99.90
2018-09-11T02:43:22.003Z,99.90
2018-09-11T02:45:50.324Z,99.90
2018-09-11T02:48:18.183Z,99.90
2018-09-11T02:50:46.044Z,99.90
2018-09-11T02:53:13.884Z,99.90
2018-09-11T02:55:41.736Z,99.90
2018-09-11T02:58:09.606Z,99.90
2018-09-11T03:00:37.407Z,99.90
2018-09-11T03:03:05.287Z,99.90
2018-09-11T03:05:33.159Z,99.90
2018-09-11T03:08:00.880Z,99.90
2018-09-11T03:10:28.700Z,99.90
2018-09-11T03:12:56.634Z,99.90
2018-09-11T03:15:24.488Z,99.90
2018-09-11T03:17:52.316Z,99.90
2018-09-11T03:20:20.132Z,99.90
2018-09-11T03:22:47.948Z,99.90
2018-09-11T03:25:15.796Z,99.90
2018-09-11T03:27:43.615Z,99.90
2018-09-11T03:30:11.433Z,99.90
2018-09-11T03:32:39.361Z,99.90
2018-09-11T03:35:07.279Z,99.90
2018-09-11T03:37:35.161Z,99.90
2018-09-11T03:40:03.371Z,99.90
2018-09-11T03:42:31.140Z,99.90
2018-09-11T03:44:58.919Z,99.90
2018-09-11T03:47:26.809Z,99.90
2018-09-11T03:49:54.655Z,99.90
2018-09-11T03:52:22.551Z,99.90
2018-09-11T03:54:50.340Z,99.90
2018-09-11T03:57:18.172Z,99.90
2018-09-11T03:59:45.956Z,99.90
2018-09-11T04:02:13.821Z,99.90
2018-09-11T04:04:41.651Z,99.90
2018-09-11T04:07:09.489Z,99.90
2018-09-11T04:09:37.339Z,99.90
2018-09-11T04:12:05.467Z,99.90
2018-09-11T04:14:33.267Z,99.90
2018-09-11T04:17:01.074Z,99.90
2018-09-11T04:19:28.893Z,99.90
2018-09-11T04:21:56.689Z,99.90
2018-09-11T04:24:24.456Z,99.90
2018-09-11T04:26:52.295Z,99.90
2018-09-11T04:29:20.095Z,99.90
2018-09-11T04:31:47.973Z,99.90
2018-09-11T04:34:15.792Z,99.90
2018-09-11T04:36:43.656Z,99.90
2018-09-11T04:39:11.519Z,99.90
2018-09-11T04:41:39.339Z,99.90
2018-09-11T04:44:07.264Z,99.90
2018-09-11T04:46:35.172Z,99.90
2018-09-11T04:49:02.994Z,99.90
2018-09-11T04:51:30.909Z,99.90
2018-09-11T04:53:58.791Z,99.90
2018-09-11T04:56:26.691Z,99.90
2018-09-11T04:58:55.128Z,99.90
2018-09-11T05:01:22.999Z,99.90
2018-09-11T05:03:51.072Z,99.90
2018-09-11T05:06:18.976Z,99.90
2018-09-11T05:08:47.082Z,99.90
2018-09-11T05:11:14.974Z,99.90
2018-09-11T05:13:42.865Z,99.90
2018-09-11T05:16:11.793Z,99.90
2018-09-11T05:18:40.028Z,99.90
2018-09-11T05:21:09.012Z,99.90
2018-09-11T05:23:37.209Z,99.90
2018-09-11T05:26:05.460Z,99.90
2018-09-11T05:28:36.674Z,99.90
2018-09-11T05:31:04.771Z,99.90
2018-09-11T05:33:34.290Z,99.90
2018-09-11T05:36:02.104Z,99.90
2018-09-11T05:38:30.136Z,99.90
2018-09-11T05:40:58.208Z,99.90
2018-09-11T05:43:26.215Z,99.90
2018-09-11T05:45:54.218Z,99.90
2018-09-11T05:48:22.079Z,99.90
2018-09-11T05:50:50.276Z,99.90
2018-09-11T05:53:18.640Z,99.90
2018-09-11T05:55:46.487Z,99.90
2018-09-11T05:58:14.279Z,99.90
2018-09-11T06:00:42.382Z,99.90
2018-09-11T06:03:10.312Z,99.90
2018-09-11T06:05:38.199Z,99.90
2018-09-11T06:08:06.005Z,99.90
2018-09-11T06:10:33.974Z,99.90
2018-09-11T06:13:05.299Z,99.90
2018-09-11T06:15:33.267Z,99.90
2018-09-11T06:18:01.153Z,99.90
2018-09-11T06:20:29.000Z,99.90
2018-09-11T06:22:56.831Z,99.90
2018-09-11T06:25:24.629Z,99.90
2018-09-11T06:27:52.451Z,99.90
2018-09-11T06:30:20.477Z,99.90
2018-09-11T06:32:48.374Z,99.90
2018-09-11T06:35:16.612Z,99.90
2018-09-11T06:37:44.455Z,99.90
2018-09-11T06:40:12.242Z,99.90
2018-09-11T06:42:40.023Z,99.90
2018-09-11T06:45:07.932Z,99.90
2018-09-11T06:47:35.827Z,99.90
2018-09-11T06:50:03.784Z,99.90
2018-09-11T06:52:31.566Z,99.90
2018-09-11T06:54:59.383Z,99.90
2018-09-11T06:57:27.256Z,99.90
2018-09-11T06:59:55.051Z,99.90
2018-09-11T07:02:22.878Z,99.70
2018-09-11T07:04:50.854Z,99.80
2018-09-11T07:07:18.664Z,99.50
2018-09-11T07:09:46.471Z,99.90
2018-09-11T07:12:14.264Z,99.80
2018-09-11T07:14:42.116Z,98.80
2018-09-11T07:17:09.864Z,99.50
2018-09-11T07:19:37.660Z,98.80
2018-09-11T07:22:05.808Z,98.90
2018-09-11T07:24:33.660Z,98.10
2018-09-11T07:27:01.476Z,97.90
2018-09-11T07:29:29.355Z,97.50
2018-09-11T07:31:57.181Z,97.40
2018-09-11T07:34:24.965Z,96.90
2018-09-11T07:36:52.745Z,97.20
2018-09-11T07:39:20.518Z,96.80
2018-09-11T07:41:48.343Z,96.50
2018-09-11T07:44:16.317Z,96.10
2018-09-11T07:46:44.095Z,95.10
2018-09-11T07:49:11.861Z,94.90
2018-09-11T07:51:39.743Z,93.60
2018-09-11T07:54:07.563Z,93.80
2018-09-11T07:56:35.375Z,93.10
2018-09-11T07:59:03.237Z,92.60
2018-09-11T08:01:31.111Z,91.80
2018-09-11T08:04:00.148Z,92.00
2018-09-11T08:06:27.990Z,92.60
2018-09-11T08:08:55.864Z,91.90
2018-09-11T08:11:23.744Z,91.80
2018-09-11T08:13:51.615Z,92.30
2018-09-11T08:16:19.469Z,92.00
2018-09-11T08:18:47.248Z,91.80
2018-09-11T08:21:15.064Z,91.80
2018-09-11T08:23:42.913Z,90.80
2018-09-11T08:26:10.758Z,91.50
2018-09-11T08:28:38.660Z,91.30
2018-09-11T08:31:06.533Z,91.60
2018-09-11T08:33:34.367Z,91.10
2018-09-11T08:36:02.216Z,90.40
2018-09-11T08:38:30.094Z,91.10
2018-09-11T08:40:57.931Z,87.90
2018-09-11T08:43:25.720Z,87.90
2018-09-11T08:45:53.591Z,86.80
2018-09-11T08:48:21.460Z,87.20
2018-09-11T08:50:49.293Z,87.30
2018-09-11T08:53:17.201Z,87.00
2018-09-11T08:55:45.176Z,81.40
2018-09-11T08:58:13.115Z,82.30
2018-09-11T09:00:40.896Z,79.90
2018-09-11T09:03:08.839Z,79.30
2018-09-11T09:05:36.609Z,78.70
2018-09-11T09:08:04.573Z,80.30
2018-09-11T09:10:32.443Z,80.50
2018-09-11T09:13:00.328Z,79.10
2018-09-11T09:15:28.214Z,80.30
2018-09-11T09:17:56.061Z,79.80
2018-09-11T09:20:23.923Z,80.70
2018-09-11T09:22:51.800Z,78.20
2018-09-11T09:25:19.580Z,78.00
2018-09-11T09:27:47.389Z,77.10
2018-09-11T09:30:15.321Z,76.50
2018-09-11T09:32:43.144Z,75.00
2018-09-11T09:35:10.940Z,75.80
2018-09-11T09:37:38.716Z,76.30
2018-09-11T09:40:06.595Z,74.20
2018-09-11T09:42:34.391Z,73.10
2018-09-11T09:45:02.316Z,74.80
2018-09-11T09:47:30.100Z,71.90
2018-09-11T09:49:57.968Z,71.20
2018-09-11T09:52:25.836Z,71.90
2018-09-11T09:54:53.654Z,73.00
2018-09-11T09:57:21.508Z,72.60
2018-09-11T09:59:49.348Z,71.40
2018-09-11T10:02:23.203Z,70.70
2018-09-11T10:04:51.844Z,72.00
2018-09-11T10:07:20.163Z,70.50
2018-09-11T10:09:47.972Z,69.90
2018-09-11T10:12:16.987Z,69.70
2018-09-11T10:14:44.892Z,70.80
2018-09-11T10:17:12.725Z,70.10
2018-09-11T10:19:40.680Z,68.60
2018-09-11T10:22:08.551Z,70.00
2018-09-11T10:24:36.417Z,69.50
2018-09-11T10:27:04.548Z,70.00
2018-09-11T10:29:32.467Z,68.30
2018-09-11T10:32:00.362Z,68.50
2018-09-11T10:34:28.219Z,68.20
2018-09-11T10:36:56.032Z,67.30
2018-09-11T10:39:23.858Z,65.50
2018-09-11T10:41:51.690Z,62.90
2018-09-11T10:44:19.591Z,60.60
2018-09-11T10:46:48.309Z,59.80
2018-09-11T10:49:16.178Z,58.70
2018-09-11T10:51:44.100Z,57.50
2018-09-11T10:54:11.956Z,55.10
2018-09-11T10:56:39.780Z,53.90
2018-09-11T10:59:07.540Z,53.00
2018-09-11T11:01:35.418Z,52.00
2018-09-11T11:04:03.284Z,53.20
2018-09-11T11:06:31.143Z,52.10
2018-09-11T11:08:58.964Z,52.70
2018-09-11T11:11:26.828Z,50.50
2018-09-11T11:13:54.655Z,49.20
2018-09-11T11:16:22.429Z,48.90
2018-09-11T11:18:50.323Z,48.50
2018-09-11T11:21:18.168Z,48.00
2018-09-11T11:23:46.083Z,48.50
2018-09-11T11:26:13.916Z,49.30
2018-09-11T11:28:41.775Z,50.00
2018-09-11T11:31:09.527Z,48.20
2018-09-11T11:33:37.332Z,48.10
2018-09-11T11:36:08.300Z,48.70
2018-09-11T11:38:36.211Z,49.20
2018-09-11T11:41:06.061Z,48.90
2018-09-11T11:43:33.852Z,47.20
2018-09-11T11:46:01.708Z,47.40
2018-09-11T11:48:30.336Z,44.60
2018-09-11T11:50:58.179Z,45.50
2018-09-11T11:53:26.012Z,46.10
2018-09-11T11:55:53.799Z,45.70
2018-09-11T11:58:21.616Z,44.40
2018-09-11T12:00:49.538Z,44.50
2018-09-11T12:03:17.360Z,45.10
2018-09-11T12:05:45.297Z,45.10
2018-09-11T12:08:13.124Z,45.50
2018-09-11T12:10:40.951Z,44.60
2018-09-11T12:13:08.701Z,45.60
2018-09-11T12:15:36.528Z,45.00
2018-09-11T12:18:04.360Z,43.40
2018-09-11T12:20:32.110Z,44.80
2018-09-11T12:23:00.029Z,43.90
2018-09-11T12:25:27.901Z,43.90
2018-09-11T12:27:55.647Z,44.00
2018-09-11T12:30:23.551Z,43.90
2018-09-11T12:32:51.351Z,44.70
2018-09-11T12:35:19.121Z,42.90
2018-09-11T12:37:46.972Z,41.10
2018-09-11T12:40:21.193Z,43.00
2018-09-11T12:42:49.169Z,43.50
2018-09-11T12:45:16.944Z,43.70
2018-09-11T12:47:45.165Z,43.70
2018-09-11T12:50:12.687Z,43.30
2018-09-11T12:52:40.619Z,43.50
2018-09-11T12:55:08.755Z,42.00
2018-09-11T12:57:36.667Z,43.80
2018-09-11T13:00:05.713Z,42.40
2018-09-11T13:02:33.620Z,45.40
2018-09-11T13:05:06.120Z,43.90
2018-09-11T13:07:34.165Z,43.50
2018-09-11T13:10:02.038Z,46.10
2018-09-11T13:12:29.915Z,45.20
2018-09-11T13:14:57.905Z,45.60
2018-09-11T13:17:25.700Z,46.30
2018-09-11T13:19:53.496Z,46.60
2018-09-11T13:22:21.356Z,46.00
2018-09-11T13:24:49.268Z,46.00
2018-09-11T13:27:17.404Z,46.80
2018-09-11T13:29:45.304Z,47.00
2018-09-11T13:32:13.111Z,47.90
2018-09-11T13:34:40.947Z,46.20
2018-09-11T13:37:08.789Z,47.90
2018-09-11T13:39:36.665Z,47.60
2018-09-11T13:42:04.511Z,47.40
2018-09-11T13:44:32.348Z,47.40
2018-09-11T13:47:01.379Z,46.60
2018-09-11T13:49:29.152Z,46.50
2018-09-11T13:51:56.943Z,47.70
2018-09-11T13:54:24.701Z,46.50
2018-09-11T13:56:52.568Z,47.20
2018-09-11T13:59:20.448Z,47.20
2018-09-11T14:01:48.349Z,46.00
2018-09-11T14:04:16.201Z,45.20
2018-09-11T14:06:43.998Z,48.00
2018-09-11T14:09:14.881Z,46.60
2018-09-11T14:11:43.867Z,47.40
2018-09-11T14:14:11.689Z,46.60
2018-09-11T14:16:40.592Z,46.80
2018-09-11T14:19:09.051Z,46.90
2018-09-11T14:21:36.948Z,47.00
2018-09-11T14:24:04.892Z,46.50
2018-09-11T14:26:32.768Z,46.40
2018-09-11T14:29:00.907Z,47.00
2018-09-11T14:31:28.751Z,47.00
2018-09-11T14:33:56.528Z,46.70
2018-09-11T14:36:25.403Z,46.40
2018-09-11T14:38:53.280Z,45.70
2018-09-11T14:41:23.579Z,45.90
2018-09-11T14:43:51.482Z,47.60
2018-09-11T14:46:19.377Z,46.50
2018-09-11T14:48:47.510Z,46.20
2018-09-11T14:51:15.463Z,47.00
2018-09-11T14:53:43.214Z,45.50
2018-09-11T14:56:11.041Z,48.10
2018-09-11T14:58:38.948Z,47.50
2018-09-11T15:01:06.895Z,46.00
2018-09-11T15:03:34.713Z,47.30
2018-09-11T15:06:02.539Z,49.00
2018-09-11T15:08:30.412Z,46.50
2018-09-11T15:11:01.699Z,46.10
2018-09-11T15:13:29.595Z,46.70
2018-09-11T15:15:57.431Z,48.40
2018-09-11T15:18:25.257Z,47.40
2018-09-11T15:20:53.142Z,46.60
2018-09-11T15:23:20.975Z,47.60
2018-09-11T15:25:48.757Z,45.80
2018-09-11T15:28:16.595Z,47.70
2018-09-11T15:30:44.519Z,48.50
2018-09-11T15:33:12.604Z,47.10
2018-09-11T15:35:40.601Z,48.30
2018-09-11T15:38:08.729Z,46.80
2018-09-11T15:40:36.581Z,47.70
2018-09-11T15:43:04.452Z,46.50
2018-09-11T15:45:32.203Z,47.70
2018-09-11T15:48:00.039Z,48.20
2018-09-11T15:50:27.943Z,47.50
2018-09-11T15:52:58.107Z,48.20
2018-09-11T15:55:25.897Z,45.30
2018-09-11T15:57:53.768Z,45.00
2018-09-11T16:00:21.539Z,46.70
2018-09-11T16:02:49.359Z,45.10
2018-09-11T16:05:17.224Z,46.50
2018-09-11T16:07:45.135Z,45.70
2018-09-11T16:10:13.032Z,45.10
2018-09-11T16:12:40.834Z,46.10
2018-09-11T16:15:08.788Z,45.00
2018-09-11T16:17:36.563Z,46.40
2018-09-11T16:20:05.634Z,44.60
2018-09-11T16:22:33.571Z,45.80
2018-09-11T16:25:01.327Z,46.20
2018-09-11T16:27:29.176Z,45.70
2018-09-11T16:29:57.121Z,45.10
2018-09-11T16:32:24.900Z,45.10
2018-09-11T16:34:52.752Z,44.70
2018-09-11T16:37:20.616Z,45.00
2018-09-11T16:39:48.494Z,45.60
2018-09-11T16:42:16.273Z,44.90
2018-09-11T16:44:44.076Z,45.00
2018-09-11T16:47:11.917Z,45.40
2018-09-11T16:49:39.727Z,45.90
2018-09-11T16:52:07.563Z,45.10
2018-09-11T16:54:35.436Z,45.70
2018-09-11T16:57:03.244Z,45.90
2018-09-11T16:59:31.076Z,45.90
2018-09-11T17:01:58.943Z,46.70
2018-09-11T17:04:26.886Z,46.30
2018-09-11T17:06:54.697Z,45.90
2018-09-11T17:09:22.518Z,47.00
2018-09-11T17:11:50.385Z,45.90
2018-09-11T17:14:18.272Z,46.40
2018-09-11T17:16:46.116Z,46.80
2018-09-11T17:19:17.154Z,46.50
2018-09-11T17:21:45.080Z,46.50
2018-09-11T17:24:12.829Z,47.20
2018-09-11T17:26:40.610Z,47.50
2018-09-11T17:29:08.435Z,47.30
2018-09-11T17:31:36.240Z,48.50
2018-09-11T17:34:04.098Z,47.90
2018-09-11T17:36:31.981Z,48.30
2018-09-11T17:38:59.807Z,47.30
2018-09-11T17:41:27.643Z,47.80
2018-09-11T17:43:55.472Z,48.40
2018-09-11T17:46:23.359Z,48.20
2018-09-11T17:48:51.300Z,48.30
2018-09-11T17:51:19.052Z,48.70
2018-09-11T17:53:46.933Z,49.20
2018-09-11T17:56:14.772Z,48.30
2018-09-11T17:58:42.530Z,48.70
2018-09-11T18:01:10.359Z,48.90
2018-09-11T18:03:38.231Z,50.20
2018-09-11T18:06:06.230Z,49.80
2018-09-11T18:08:34.063Z,49.90
2018-09-11T18:11:01.983Z,50.00
2018-09-11T18:13:29.780Z,50.30
2018-09-11T18:15:57.624Z,50.70
2018-09-11T18:18:25.500Z,51.00
2018-09-11T18:20:53.307Z,51.30
2018-09-11T18:23:21.204Z,50.80
2018-09-11T18:25:49.235Z,51.10
2018-09-11T18:28:17.059Z,51.40
2018-09-11T18:30:44.888Z,51.90
2018-09-11T18:33:12.931Z,52.10
2018-09-11T18:35:40.808Z,51.60
2018-09-11T18:38:08.702Z,52.60
2018-09-11T18:40:36.571Z,52.40
2018-09-11T18:43:04.434Z,52.20
2018-09-11T18:45:32.328Z,52.90
2018-09-11T18:48:00.160Z,52.50
2018-09-11T18:50:28.012Z,53.30
2018-09-11T18:52:56.405Z,53.10
2018-09-11T18:55:24.355Z,53.30
2018-09-11T18:57:53.543Z,53.40
2018-09-11T19:00:26.919Z,53.20
2018-09-11T19:02:54.867Z,53.20
2018-09-11T19:05:23.873Z,53.30
2018-09-11T19:07:51.895Z,53.30
2018-09-11T19:10:20.255Z,54.30
2018-09-11T19:12:48.042Z,54.50
2018-09-11T19:15:22.295Z,55.00
2018-09-11T19:17:57.280Z,55.60
2018-09-11T19:20:33.747Z,56.20
2018-09-11T19:23:06.398Z,56.90
2018-09-11T19:25:34.307Z,56.50
2018-09-11T19:28:02.606Z,56.60
2018-09-11T19:30:37.058Z,56.70
2018-09-11T19:33:06.013Z,56.60
2018-09-11T19:35:35.081Z,57.10
2018-09-11T19:38:03.253Z,57.20
2018-09-11T19:40:34.948Z,57.40
2018-09-11T19:43:02.841Z,58.20
2018-09-11T19:45:33.190Z,58.80
2018-09-11T19:48:01.135Z,58.40
2018-09-11T19:50:29.194Z,58.10
2018-09-11T19:52:57.031Z,58.30
2018-09-11T19:55:24.863Z,58.20
2018-09-11T19:57:54.050Z,58.80
2018-09-11T20:00:24.943Z,58.80
2018-09-11T20:02:54.106Z,59.60
2018-09-11T20:05:28.152Z,60.70
2018-09-11T20:08:02.948Z,62.30
2018-09-11T20:10:41.301Z,63.00
2018-09-11T20:13:09.326Z,68.80
2018-09-11T20:15:37.672Z,69.40
2018-09-11T20:18:07.939Z,70.30
2018-09-11T20:20:39.650Z,70.30
2018-09-11T20:23:07.609Z,70.10
2018-09-11T20:25:35.451Z,70.50
2018-09-11T20:28:03.300Z,70.30
2018-09-11T20:30:31.132Z,71.30
2018-09-11T20:32:58.940Z,71.80
2018-09-11T20:35:26.801Z,71.50
2018-09-11T20:37:54.693Z,68.10
2018-09-11T20:40:22.571Z,73.10
2018-09-11T20:42:50.386Z,72.70
2018-09-11T20:45:18.217Z,73.70
2018-09-11T20:47:46.039Z,74.70
2018-09-11T20:50:13.902Z,74.90
2018-09-11T20:52:46.328Z,75.90
2018-09-11T20:55:14.219Z,76.70
2018-09-11T20:57:42.055Z,77.20
2018-09-11T21:00:09.988Z,78.70
2018-09-11T21:02:37.817Z,81.40
2018-09-11T21:05:05.667Z,82.20
2018-09-11T21:07:33.486Z,81.30
2018-09-11T21:10:01.285Z,82.20
2018-09-11T21:12:29.063Z,83.20
2018-09-11T21:14:56.918Z,84.70
2018-09-11T21:17:24.807Z,85.00
2018-09-11T21:19:52.622Z,85.40
2018-09-11T21:22:20.479Z,85.90
2018-09-11T21:24:48.231Z,86.60
2018-09-11T21:27:16.071Z,85.90
2018-09-11T21:29:43.848Z,85.20
2018-09-11T21:32:11.629Z,86.30
2018-09-11T21:34:42.650Z,87.10
2018-09-11T21:37:10.476Z,88.40
2018-09-11T21:39:38.264Z,89.00
2018-09-11T21:42:06.460Z,89.50
2018-09-11T21:44:34.243Z,90.10
2018-09-11T21:47:02.087Z,90.00
2018-09-11T21:49:29.923Z,90.90
2018-09-11T21:51:57.907Z,91.10
2018-09-11T21:54:25.763Z,91.30
2018-09-11T21:56:53.653Z,91.40
2018-09-11T21:59:21.500Z,91.70
2018-09-11T22:01:51.724Z,91.60
2018-09-11T22:04:20.555Z,91.80
2018-09-11T22:06:48.424Z,92.00
2018-09-11T22:09:16.292Z,92.40
2018-09-11T22:11:44.093Z,92.60
2018-09-11T22:14:11.967Z,92.90
2018-09-11T22:16:39.774Z,93.10
2018-09-11T22:19:07.888Z,93.20
2018-09-11T22:21:36.353Z,93.40
2018-09-11T22:24:04.403Z,93.50
2018-09-11T22:26:32.600Z,93.30
2018-09-11T22:29:00.468Z,93.50
2018-09-11T22:31:28.589Z,93.50
2018-09-11T22:33:56.535Z,93.40
2018-09-11T22:36:24.787Z,93.60
2018-09-11T22:38:52.606Z,93.80
2018-09-11T22:41:20.532Z,93.80
2018-09-11T22:43:48.336Z,93.80
2018-09-11T22:46:16.272Z,94.20
2018-09-11T22:48:44.097Z,94.60
2018-09-11T22:51:11.908Z,94.50
2018-09-11T22:53:39.820Z,95.10
2018-09-11T22:56:07.699Z,95.00
2018-09-11T22:58:35.476Z,94.30
2018-09-11T23:01:03.337Z,95.40
2018-09-11T23:03:31.304Z,95.80
2018-09-11T23:05:59.290Z,96.00
2018-09-11T23:08:27.127Z,95.60
2018-09-11T23:10:54.937Z,95.50
2018-09-11T23:13:22.896Z,96.00
2018-09-11T23:15:50.755Z,96.20
2018-09-11T23:18:18.632Z,96.50
2018-09-11T23:20:48.265Z,96.40
2018-09-11T23:23:16.015Z,96.80
2018-09-11T23:25:47.319Z,97.20
2018-09-11T23:28:15.143Z,97.50
2018-09-11T23:30:43.088Z,97.20
2018-09-11T23:33:10.916Z,97.70
2018-09-11T23:35:38.798Z,97.70
2018-09-11T23:38:06.697Z,97.70
2018-09-11T23:40:34.524Z,97.50
2018-09-11T23:43:02.418Z,97.70
2018-09-11T23:45:30.248Z,97.90
2018-09-11T23:47:58.075Z,98.10
2018-09-11T23:50:26.036Z,98.50
2018-09-11T23:52:53.933Z,98.70
2018-09-11T23:55:21.918Z,98.40
2018-09-11T23:57:50.041Z,98.30
